Time;durP1;ratioP1;P1;durP2;ratioP2;P2;SDS_P1;SDS_P2;PMS_P1;PMS_P2;Temp;Humidity;BMP_temperature;BMP_pressure;BME280_temperature;BME280_humidity;BME280_pressure;Samples;Min_cycle;Max_cycle;Signal;HPM_P1;HPM_P2
2023/08/18 00:00:14;;;;;;;12.60;8.70;;;;;;;-128.00;-1.00;-1.00;18470;294;7506245;-35
2023/08/18 00:02:40;;;;;;;27.10;8.60;;;;;;;-128.00;-1.00;-1.00;18466;296;7506442;-32
2023/08/18 00:05:06;;;;;;;8.30;7.60;;;;;;;-128.00;-1.00;-1.00;18479;318;7504714;-36
2023/08/18 00:07:32;;;;;;;14.40;10.10;;;;;;;-128.00;-1.00;-1.00;18476;294;7505200;-36
2023/08/18 00:09:58;;;;;;;12.30;10.00;;;;;;;-128.00;-1.00;-1.00;18453;294;7506010;-36
2023/08/18 00:12:24;;;;;;;13.40;9.30;;;;;;;-128.00;-1.00;-1.00;18493;294;7504792;-36
2023/08/18 00:14:51;;;;;;;12.20;8.80;;;;;;;-128.00;-1.00;-1.00;18907;288;7504739;-36
2023/08/18 00:17:17;;;;;;;11.60;7.80;;;;;;;-128.00;-1.00;-1.00;18508;294;7504721;-35
2023/08/18 00:19:50;;;;;;;12.20;9.10;;;;;;;-128.00;-1.00;-1.00;18490;294;7504911;-32
2023/08/18 00:22:16;;;;;;;9.20;6.40;;;;;;;-128.00;-1.00;-1.00;18492;294;7504567;-35
2023/08/18 00:24:42;;;;;;;7.30;6.60;;;;;;;-128.00;-1.00;-1.00;18468;302;7505099;-35
2023/08/18 00:27:07;;;;;;;8.00;6.50;;;;;;;-128.00;-1.00;-1.00;18494;294;7505078;-34
2023/08/18 00:29:33;;;;;;;9.00;7.00;;;;;;;-128.00;-1.00;-1.00;18476;339;7506381;-35
2023/08/18 00:31:59;;;;;;;7.00;6.30;;;;;;;-128.00;-1.00;-1.00;18893;294;7505822;-34
2023/08/18 00:34:25;;;;;;;11.20;9.40;;;;;;;-128.00;-1.00;-1.00;18888;346;7504494;-36
2023/08/18 01:19:07;;;;;;;26.60;14.20;;;;;;;-99.12;19.20;19927.88;19561;296;8045669;-36
2023/08/18 01:21:36;;;;;;;35.70;25.00;;;;;;;-128.00;-1.00;-1.00;17076;295;8033048;-33
2023/08/18 01:24:05;;;;;;;16.00;14.20;;;;;;;-128.00;-1.00;-1.00;18476;288;7506875;-32
2023/08/18 01:26:38;;;;;;;30.50;12.40;;;;;;;-128.00;-1.00;-1.00;18485;295;7504955;-36
2023/08/18 01:29:04;;;;;;;18.90;13.70;;;;;;;-128.00;-1.00;-1.00;18887;295;7505075;-36
2023/08/18 01:31:31;;;;;;;16.00;12.60;;;;;;;-128.00;-1.00;-1.00;18872;295;7504820;-36
2023/08/18 01:34:05;;;;;;;21.00;11.80;;;;;;;-128.00;-1.00;-1.00;18461;296;7504562;-33
2023/08/18 01:36:37;;;;;;;16.90;11.80;;;;;;;-128.00;-1.00;-1.00;18503;295;7504906;-32
2023/08/18 01:39:03;;;;;;;18.90;10.70;;;;;;;-128.00;-1.00;-1.00;18490;296;7504520;-32
2023/08/18 01:41:29;;;;;;;10.20;8.60;;;;;;;-128.00;-1.00;-1.00;18488;295;7504024;-35
2023/08/18 01:43:55;;;;;;;8.50;7.20;;;;;;;-128.00;-1.00;-1.00;18474;295;7506095;-35
2023/08/18 01:46:21;;;;;;;17.40;9.80;;;;;;;-128.00;-1.00;-1.00;18479;284;7504321;-35
2023/08/18 01:48:47;;;;;;;15.70;11.40;;;;;;;-128.00;-1.00;-1.00;18909;296;7504917;-35
2023/08/18 01:51:13;;;;;;;11.40;9.70;;;;;;;-128.00;-1.00;-1.00;18878;285;7504324;-35
2023/08/18 01:53:39;;;;;;;14.50;11.00;;;;;;;-128.00;-1.00;-1.00;18874;288;7505776;-35
2023/08/18 01:56:05;;;;;;;11.90;8.00;;;;;;;-128.00;-1.00;-1.00;18871;295;7504575;-35
2023/08/18 01:58:32;;;;;;;16.10;10.70;;;;;;;-128.00;-1.00;-1.00;18910;348;7505184;-32
2023/08/18 02:00:58;;;;;;;10.60;6.90;;;;;;;-128.00;-1.00;-1.00;18858;295;7504187;-33
2023/08/18 02:03:27;;;;;;;15.10;9.10;;;;;;;-128.00;-1.00;-1.00;18864;288;7504883;-38
2023/08/18 02:05:56;;;;;;;21.30;9.00;;;;;;;-128.00;-1.00;-1.00;18489;296;7504135;-32
2023/08/18 02:08:22;;;;;;;14.10;8.30;;;;;;;-128.00;-1.00;-1.00;18490;296;7504967;-35
2023/08/18 02:10:48;;;;;;;7.80;7.10;;;;;;;-128.00;-1.00;-1.00;18493;295;7504315;-32
2023/08/18 02:13:14;;;;;;;11.00;9.80;;;;;;;-128.00;-1.00;-1.00;18460;295;7505140;-36
2023/08/18 02:15:40;;;;;;;25.00;8.40;;;;;;;-128.00;-1.00;-1.00;18484;288;7504829;-32
2023/08/18 02:18:06;;;;;;;19.90;15.60;;;;;;;-128.00;-1.00;-1.00;18475;284;7505874;-32
2023/08/18 02:20:32;;;;;;;9.20;7.80;;;;;;;-128.00;-1.00;-1.00;18523;295;7505719;-32
2023/08/18 02:22:58;;;;;;;11.90;8.00;;;;;;;-128.00;-1.00;-1.00;18480;336;7504687;-32
2023/08/18 02:25:24;;;;;;;12.40;8.80;;;;;;;-128.00;-1.00;-1.00;18520;296;7504342;-35
2023/08/18 02:28:04;;;;;;;34.30;21.60;;;;;;;-128.00;-1.00;-1.00;18490;296;7504490;-35
2023/08/18 02:30:31;;;;;;;12.60;11.40;;;;;;;-128.00;-1.00;-1.00;18482;340;7504833;-34
2023/08/18 02:33:10;;;;;;;13.00;10.50;;;;;;;-128.00;-1.00;-1.00;18482;295;7505190;-31
2023/08/18 02:35:36;;;;;;;15.90;10.50;;;;;;;-128.00;-1.00;-1.00;18465;297;7505891;-31
2023/08/18 02:38:02;;;;;;;12.10;9.90;;;;;;;-128.00;-1.00;-1.00;18448;296;7506277;-32
2023/08/18 02:40:27;;;;;;;14.70;12.50;;;;;;;-128.00;-1.00;-1.00;18473;296;7505742;-35
2023/08/18 02:42:53;;;;;;;17.90;12.20;;;;;;;-128.00;-1.00;-1.00;18546;296;7504429;-35
2023/08/18 02:45:19;;;;;;;13.20;9.10;;;;;;;-128.00;-1.00;-1.00;18476;295;7504402;-35
2023/08/18 02:47:44;;;;;;;12.40;10.40;;;;;;;-128.00;-1.00;-1.00;18483;288;7505136;-32
2023/08/18 02:50:10;;;;;;;15.40;11.60;;;;;;;-128.00;-1.00;-1.00;18487;296;7504543;-35
2023/08/18 02:52:36;;;;;;;14.00;10.50;;;;;;;-128.00;-1.00;-1.00;18506;307;7505822;-35
2023/08/18 02:55:02;;;;;;;11.10;9.10;;;;;;;-128.00;-1.00;-1.00;18457;311;7505922;-32
2023/08/18 02:57:27;;;;;;;11.30;9.30;;;;;;;-128.00;-1.00;-1.00;18495;296;7504282;-33
2023/08/18 02:59:53;;;;;;;13.00;9.60;;;;;;;-128.00;-1.00;-1.00;18515;336;7504413;-36
2023/08/18 03:02:19;;;;;;;9.80;8.20;;;;;;;-128.00;-1.00;-1.00;18472;307;7504407;-33
2023/08/18 03:04:44;;;;;;;11.60;8.70;;;;;;;-128.00;-1.00;-1.00;18504;288;7505526;-33
2023/08/18 03:07:11;;;;;;;12.10;9.20;;;;;;;-128.00;-1.00;-1.00;18503;288;7505154;-35
2023/08/18 03:09:36;;;;;;;10.20;8.40;;;;;;;-128.00;-1.00;-1.00;18489;288;7507426;-32
2023/08/18 03:12:03;;;;;;;13.80;10.70;;;;;;;-128.00;-1.00;-1.00;18917;296;7505877;-33
2023/08/18 03:14:28;;;;;;;10.60;8.80;;;;;;;-128.00;-1.00;-1.00;18484;296;7505118;-35
2023/08/18 03:16:54;;;;;;;13.70;10.40;;;;;;;-128.00;-1.00;-1.00;18468;319;7504581;-35
2023/08/18 03:19:20;;;;;;;8.00;7.20;;;;;;;-128.00;-1.00;-1.00;18461;296;7506071;-32
2023/08/18 03:21:46;;;;;;;10.30;8.90;;;;;;;-128.00;-1.00;-1.00;18459;296;7504646;-36
2023/08/18 03:24:13;;;;;;;9.50;8.10;;;;;;;-128.00;-1.00;-1.00;18506;296;7504503;-36
2023/08/18 03:26:38;;;;;;;8.70;7.60;;;;;;;-128.00;-1.00;-1.00;18478;296;7506130;-36
2023/08/18 03:29:04;;;;;;;24.60;9.50;;;;;;;-128.00;-1.00;-1.00;18479;347;7505151;-33
2023/08/18 03:31:30;;;;;;;13.10;10.30;;;;;;;-128.00;-1.00;-1.00;18878;295;7504530;-37
2023/08/18 03:33:56;;;;;;;8.10;6.60;;;;;;;-128.00;-1.00;-1.00;18892;295;7504825;-33
2023/08/18 03:36:28;;;;;;;;;;;;;;;-128.00;-1.00;-1.00;18504;296;7504672;-36
2023/08/18 03:38:55;;;;;;;7.50;6.80;;;;;;;-128.00;-1.00;-1.00;18890;296;7505211;-36
2023/08/18 03:41:21;;;;;;;21.00;10.90;;;;;;;-128.00;-1.00;-1.00;18866;295;7504912;-36
2023/08/18 03:43:47;;;;;;;11.90;9.80;;;;;;;-128.00;-1.00;-1.00;18864;296;7504424;-33
2023/08/18 03:46:25;;;;;;;11.70;8.80;;;;;;;-128.00;-1.00;-1.00;18882;296;7504591;-33
2023/08/18 03:48:52;;;;;;;6.30;5.70;;;;;;;-128.00;-1.00;-1.00;18475;288;7506076;-35
2023/08/18 03:51:18;;;;;;;5.70;5.10;;;;;;;-128.00;-1.00;-1.00;18476;296;7504332;-35
2023/08/18 03:53:43;;;;;;;10.80;9.50;;;;;;;-128.00;-1.00;-1.00;18447;307;7505023;-38
2023/08/18 03:56:10;;;;;;;15.30;11.30;;;;;;;-128.00;-1.00;-1.00;18870;296;7504373;-34
2023/08/18 03:58:36;;;;;;;18.10;11.40;;;;;;;-128.00;-1.00;-1.00;18490;296;7505126;-32
2023/08/18 04:01:04;;;;;;;16.10;13.10;;;;;;;-128.00;-1.00;-1.00;18458;287;7505113;-32
2023/08/18 04:03:30;;;;;;;14.20;10.80;;;;;;;-128.00;-1.00;-1.00;18498;296;7505070;-32
2023/08/18 04:05:56;;;;;;;12.40;9.90;;;;;;;-128.00;-1.00;-1.00;18476;288;7506811;-34
2023/08/18 04:08:22;;;;;;;16.50;9.90;;;;;;;-128.00;-1.00;-1.00;18497;295;7505282;-32
2023/08/18 04:10:48;;;;;;;19.20;13.60;;;;;;;-128.00;-1.00;-1.00;18462;288;7506553;-33
2023/08/18 04:13:14;;;;;;;34.50;22.20;;;;;;;-128.00;-1.00;-1.00;18511;288;7504775;-36
2023/08/18 04:15:41;;;;;;;51.60;36.90;;;;;;;-128.00;-1.00;-1.00;18476;288;7503995;-36
2023/08/18 04:18:07;;;;;;;26.00;18.40;;;;;;;-128.00;-1.00;-1.00;18479;307;7504488;-36
2023/08/18 04:20:34;;;;;;;21.30;16.20;;;;;;;-128.00;-1.00;-1.00;18482;288;7504546;-33
2023/08/18 04:23:00;;;;;;;19.90;15.00;;;;;;;-128.00;-1.00;-1.00;18463;297;7505607;-36
2023/08/18 04:25:26;;;;;;;33.30;24.50;;;;;;;-128.00;-1.00;-1.00;18860;288;7504451;-36
2023/08/18 04:27:52;;;;;;;45.70;27.70;;;;;;;-128.00;-1.00;-1.00;18864;341;7504417;-36
2023/08/18 04:30:18;;;;;;;22.20;16.70;;;;;;;-128.00;-1.00;-1.00;18916;296;7504744;-34
2023/08/18 04:32:44;;;;;;;29.70;21.10;;;;;;;-128.00;-1.00;-1.00;18904;347;7505015;-32
2023/08/18 04:35:11;;;;;;;29.20;21.00;;;;;;;-128.00;-1.00;-1.00;18475;296;7504854;-32
2023/08/18 04:37:57;;;;;;;22.50;19.20;;;;;;;-128.00;-1.00;-1.00;18469;296;7504958;-34
2023/08/18 04:40:23;;;;;;;38.90;20.20;;;;;;;-128.00;-1.00;-1.00;18451;297;7504432;-32
2023/08/18 04:42:49;;;;;;;26.00;18.20;;;;;;;-128.00;-1.00;-1.00;18469;283;7505025;-34
2023/08/18 04:45:15;;;;;;;26.00;17.20;;;;;;;-128.00;-1.00;-1.00;18498;308;7504773;-37
2023/08/18 04:47:41;;;;;;;34.90;20.60;;;;;;;-128.00;-1.00;-1.00;18468;295;7505869;-33
2023/08/18 04:50:07;;;;;;;27.10;19.70;;;;;;;-128.00;-1.00;-1.00;18467;296;7504277;-36
2023/08/18 04:52:33;;;;;;;25.30;17.90;;;;;;;-128.00;-1.00;-1.00;18457;296;7505362;-36
2023/08/18 04:54:59;;;;;;;17.80;14.90;;;;;;;-128.00;-1.00;-1.00;18516;296;7504266;-36
2023/08/18 04:57:25;;;;;;;21.10;13.50;;;;;;;-128.00;-1.00;-1.00;18489;296;7506013;-33
2023/08/18 04:59:51;;;;;;;24.80;14.80;;;;;;;-128.00;-1.00;-1.00;18856;295;7504331;-32
2023/08/18 05:02:17;;;;;;;18.80;13.90;;;;;;;-128.00;-1.00;-1.00;18871;296;7504954;-34
2023/08/18 05:04:44;;;;;;;19.60;14.90;;;;;;;-128.00;-1.00;-1.00;18871;348;7504735;-36
2023/08/18 05:07:10;;;;;;;22.10;13.50;;;;;;;-128.00;-1.00;-1.00;18870;288;7506066;-32
2023/08/18 05:09:36;;;;;;;18.30;13.60;;;;;;;-128.00;-1.00;-1.00;18863;300;7504935;-32
2023/08/18 05:12:07;;;;;;;24.60;11.30;;;;;;;-128.00;-1.00;-1.00;18491;296;7505041;-32
2023/08/18 05:14:34;;;;;;;20.70;13.40;;;;;;;-128.00;-1.00;-1.00;18481;296;7504767;-32
2023/08/18 05:17:00;;;;;;;10.80;7.40;;;;;;;-128.00;-1.00;-1.00;18500;296;7504846;-32
2023/08/18 05:19:26;;;;;;;15.90;11.80;;;;;;;-128.00;-1.00;-1.00;18453;288;7506358;-35
2023/08/18 05:21:52;;;;;;;18.80;15.60;;;;;;;-128.00;-1.00;-1.00;18906;296;7504429;-33
2023/08/18 05:24:18;;;;;;;17.20;14.00;;;;;;;-128.00;-1.00;-1.00;18873;295;7505010;-35
2023/08/18 05:26:45;;;;;;;18.30;12.30;;;;;;;-128.00;-1.00;-1.00;18864;296;7504606;-31
2023/08/18 05:29:11;;;;;;;17.20;12.50;;;;;;;-128.00;-1.00;-1.00;18881;295;7504388;-32
2023/08/18 05:31:37;;;;;;;15.30;11.40;;;;;;;-128.00;-1.00;-1.00;18847;336;7504858;-34
2023/08/18 05:34:04;;;;;;;14.40;12.20;;;;;;;-128.00;-1.00;-1.00;18914;288;7504281;-32
2023/08/18 05:36:31;;;;;;;12.20;10.80;;;;;;;-128.00;-1.00;-1.00;18460;298;7506256;-32
2023/08/18 05:38:58;;;;;;;25.90;11.90;;;;;;;-128.00;-1.00;-1.00;18477;320;7504646;-35
2023/08/18 05:41:24;;;;;;;17.90;12.20;;;;;;;-128.00;-1.00;-1.00;18451;283;7504805;-36
2023/08/18 05:43:50;;;;;;;23.50;12.10;;;;;;;-128.00;-1.00;-1.00;18478;295;7504727;-36
2023/08/18 05:46:15;;;;;;;12.30;11.00;;;;;;;-128.00;-1.00;-1.00;18486;296;7504492;-32
2023/08/18 05:48:41;;;;;;;9.50;7.80;;;;;;;-128.00;-1.00;-1.00;18490;296;7504450;-32
2023/08/18 05:51:07;;;;;;;15.30;12.40;;;;;;;-128.00;-1.00;-1.00;18883;287;7504845;-32
2023/08/18 05:53:34;;;;;;;16.00;9.60;;;;;;;-128.00;-1.00;-1.00;18874;288;7504783;-35
2023/08/18 05:56:00;;;;;;;28.30;14.20;;;;;;;-128.00;-1.00;-1.00;18882;340;7504814;-35
2023/08/18 05:58:26;;;;;;;28.50;11.50;;;;;;;-128.00;-1.00;-1.00;18509;288;7506203;-33
2023/08/18 06:00:53;;;;;;;13.40;10.20;;;;;;;-128.00;-1.00;-1.00;18491;296;7506431;-35
2023/08/18 06:03:19;;;;;;;21.90;12.80;;;;;;;-128.00;-1.00;-1.00;18477;296;7505703;-32
2023/08/18 06:05:48;;;;;;;14.60;13.10;;;;;;;-128.00;-1.00;-1.00;18486;288;7505070;-34
2023/08/18 06:08:14;;;;;;;15.70;13.30;;;;;;;-128.00;-1.00;-1.00;18499;295;7505218;-32
2023/08/18 06:10:40;;;;;;;11.30;10.10;;;;;;;-128.00;-1.00;-1.00;18506;288;7504234;-36
2023/08/18 06:13:06;;;;;;;13.20;11.80;;;;;;;-128.00;-1.00;-1.00;18471;288;7505811;-36
2023/08/18 06:15:33;;;;;;;19.50;14.80;;;;;;;-128.00;-1.00;-1.00;18488;296;7504372;-36
2023/08/18 06:17:59;;;;;;;18.70;12.60;;;;;;;-128.00;-1.00;-1.00;18524;296;7505130;-33
2023/08/18 06:20:25;;;;;;;14.60;11.90;;;;;;;-128.00;-1.00;-1.00;18484;307;7504850;-38
2023/08/18 06:22:50;;;;;;;18.20;12.20;;;;;;;-128.00;-1.00;-1.00;18522;288;7504771;-36
2023/08/18 06:25:16;;;;;;;21.40;12.20;;;;;;;-128.00;-1.00;-1.00;18491;296;7504908;-32
2023/08/18 06:27:42;;;;;;;17.50;13.70;;;;;;;-128.00;-1.00;-1.00;18896;288;7505100;-35
2023/08/18 06:30:11;;;;;;;16.00;12.80;;;;;;;-128.00;-1.00;-1.00;18884;296;7504443;-35
2023/08/18 06:32:36;;;;;;;12.00;10.80;;;;;;;-128.00;-1.00;-1.00;18489;296;7505681;-32
2023/08/18 06:35:03;;;;;;;20.60;11.60;;;;;;;-128.00;-1.00;-1.00;18459;337;7506237;-32
2023/08/18 06:37:28;;;;;;;21.60;12.20;;;;;;;-128.00;-1.00;-1.00;18513;295;7506073;-36
2023/08/18 06:39:55;;;;;;;14.30;12.10;;;;;;;-128.00;-1.00;-1.00;18475;296;7504768;-36
2023/08/18 06:42:21;;;;;;;21.60;15.10;;;;;;;-128.00;-1.00;-1.00;18500;295;7504833;-36
2023/08/18 06:44:48;;;;;;;15.90;12.50;;;;;;;-128.00;-1.00;-1.00;18528;296;7506128;-35
2023/08/18 06:47:14;;;;;;;10.10;9.00;;;;;;;-128.00;-1.00;-1.00;18487;296;7504697;-36
2023/08/18 06:49:40;;;;;;;13.20;11.90;;;;;;;-128.00;-1.00;-1.00;18482;288;7504948;-36
2023/08/18 06:52:05;;;;;;;18.70;11.50;;;;;;;-128.00;-1.00;-1.00;18480;288;7504453;-33
2023/08/18 06:54:31;;;;;;;14.40;10.60;;;;;;;-128.00;-1.00;-1.00;18495;296;7506141;-35
2023/08/18 06:56:57;;;;;;;12.70;10.30;;;;;;;-128.00;-1.00;-1.00;18877;288;7504849;-33
2023/08/18 06:59:24;;;;;;;10.30;8.80;;;;;;;-128.00;-1.00;-1.00;18885;320;7504633;-33
2023/08/18 07:01:50;;;;;;;12.00;9.00;;;;;;;-128.00;-1.00;-1.00;18489;296;7504606;-33
2023/08/18 07:04:16;;;;;;;11.60;9.00;;;;;;;-128.00;-1.00;-1.00;18508;296;7504683;-33
2023/08/18 07:06:44;;;;;;;10.20;9.20;;;;;;;-128.00;-1.00;-1.00;18480;295;7507069;-36
2023/08/18 07:09:10;;;;;;;13.20;8.40;;;;;;;-128.00;-1.00;-1.00;18495;287;7505485;-33
2023/08/18 07:11:38;;;;;;;9.00;7.40;;;;;;;-128.00;-1.00;-1.00;18461;296;7504586;-35
2023/08/18 07:14:04;;;;;;;10.00;6.70;;;;;;;-128.00;-1.00;-1.00;18488;288;7505015;-35
2023/08/18 07:16:30;;;;;;;5.70;5.20;;;;;;;-128.00;-1.00;-1.00;18492;340;7504809;-33
2023/08/18 07:18:55;;;;;;;5.90;5.20;;;;;;;-128.00;-1.00;-1.00;18477;295;7505882;-34
2023/08/18 07:21:26;;;;;;;7.70;7.00;;;;;;;-128.00;-1.00;-1.00;18487;296;7504996;-36
2023/08/18 07:23:52;;;;;;;6.30;5.70;;;;;;;-128.00;-1.00;-1.00;18470;296;7504682;-36
2023/08/18 07:26:18;;;;;;;7.40;5.60;;;;;;;-128.00;-1.00;-1.00;18465;296;7504768;-34
2023/08/18 07:28:44;;;;;;;6.00;5.50;;;;;;;-128.00;-1.00;-1.00;18888;297;7505075;-35
2023/08/18 07:31:11;;;;;;;6.80;5.90;;;;;;;-128.00;-1.00;-1.00;18881;295;7504632;-34
2023/08/18 07:33:37;;;;;;;6.60;5.70;;;;;;;-128.00;-1.00;-1.00;18890;296;7504042;-34
2023/08/18 07:36:04;;;;;;;6.60;5.00;;;;;;;-128.00;-1.00;-1.00;18882;336;7504946;-33
2023/08/18 07:38:32;;;;;;;5.60;4.90;;;;;;;-128.00;-1.00;-1.00;18468;288;7505082;-36
2023/08/18 07:40:59;;;;;;;10.00;5.50;;;;;;;-128.00;-1.00;-1.00;18496;288;7505086;-36
2023/08/18 07:43:24;;;;;;;13.50;4.80;;;;;;;-128.00;-1.00;-1.00;18494;296;7506173;-36
2023/08/18 07:45:50;;;;;;;5.70;5.20;;;;;;;-128.00;-1.00;-1.00;18866;288;7504716;-34
2023/08/18 07:48:17;;;;;;;9.40;4.60;;;;;;;-128.00;-1.00;-1.00;18881;287;7504368;-33
2023/08/18 07:50:43;;;;;;;5.80;4.30;;;;;;;-128.00;-1.00;-1.00;18506;295;7504546;-35
2023/08/18 07:53:09;;;;;;;6.00;4.60;;;;;;;-128.00;-1.00;-1.00;18475;295;7505753;-33
2023/08/18 07:55:36;;;;;;;5.40;4.80;;;;;;;-128.00;-1.00;-1.00;18461;347;7505828;-33
2023/08/18 07:58:03;;;;;;;4.20;3.80;;;;;;;-128.00;-1.00;-1.00;18481;284;7504366;-33
2023/08/18 08:00:30;;;;;;;5.00;4.50;;;;;;;-128.00;-1.00;-1.00;18490;336;7504735;-36
2023/08/18 08:02:56;;;;;;;5.30;3.70;;;;;;;-128.00;-1.00;-1.00;18487;296;7505421;-33
2023/08/18 08:05:23;;;;;;;5.00;4.40;;;;;;;-128.00;-1.00;-1.00;18470;296;7505393;-33
2023/08/18 08:07:48;;;;;;;4.70;3.90;;;;;;;-128.00;-1.00;-1.00;18496;288;7504385;-36
2023/08/18 08:10:14;;;;;;;4.90;4.30;;;;;;;-128.00;-1.00;-1.00;18508;288;7506464;-36
2023/08/18 08:12:40;;;;;;;5.00;4.50;;;;;;;-128.00;-1.00;-1.00;18511;288;7506024;-36
2023/08/18 08:15:07;;;;;;;5.30;4.30;;;;;;;-128.00;-1.00;-1.00;18505;288;7504218;-37
2023/08/18 08:17:34;;;;;;;6.90;4.20;;;;;;;-128.00;-1.00;-1.00;18486;296;7504793;-35
2023/08/18 08:20:00;;;;;;;6.80;4.80;;;;;;;-128.00;-1.00;-1.00;18502;288;7504089;-36
2023/08/18 08:22:26;;;;;;;4.40;4.00;;;;;;;-128.00;-1.00;-1.00;18535;295;7506225;-36
2023/08/18 08:24:54;;;;;;;3.90;3.60;;;;;;;-128.00;-1.00;-1.00;18514;296;7504286;-33
2023/08/18 08:27:20;;;;;;;3.60;3.30;;;;;;;-128.00;-1.00;-1.00;18515;309;7504307;-36
2023/08/18 08:29:46;;;;;;;5.50;5.10;;;;;;;-128.00;-1.00;-1.00;18506;288;7504268;-33
2023/08/18 08:32:12;;;;;;;4.20;3.50;;;;;;;-128.00;-1.00;-1.00;18473;296;7504888;-36
2023/08/18 08:34:38;;;;;;;3.80;3.50;;;;;;;-128.00;-1.00;-1.00;18500;296;7506375;-33
2023/08/18 08:37:03;;;;;;;3.40;3.10;;;;;;;-128.00;-1.00;-1.00;18462;337;7506459;-33
2023/08/18 08:39:29;;;;;;;14.70;4.60;;;;;;;-128.00;-1.00;-1.00;18479;288;7504283;-33
2023/08/18 08:41:56;;;;;;;4.50;4.20;;;;;;;-128.00;-1.00;-1.00;18455;315;7504311;-33
2023/08/18 08:44:23;;;;;;;3.80;3.50;;;;;;;-128.00;-1.00;-1.00;18480;296;7504502;-32
2023/08/18 08:46:49;;;;;;;4.70;4.30;;;;;;;-128.00;-1.00;-1.00;18470;295;7505843;-32
2023/08/18 08:49:15;;;;;;;4.60;4.20;;;;;;;-128.00;-1.00;-1.00;18467;340;7504525;-32
2023/08/18 08:51:41;;;;;;;4.50;3.30;;;;;;;-128.00;-1.00;-1.00;18458;298;7504328;-36
2023/08/18 08:54:08;;;;;;;5.60;3.90;;;;;;;-128.00;-1.00;-1.00;18458;297;7504612;-35
2023/08/18 08:56:34;;;;;;;4.80;4.00;;;;;;;-128.00;-1.00;-1.00;18462;296;7506835;-35
2023/08/18 08:59:00;;;;;;;3.70;3.20;;;;;;;-128.00;-1.00;-1.00;18465;296;7505291;-36
2023/08/18 09:01:26;;;;;;;4.40;4.10;;;;;;;-128.00;-1.00;-1.00;18453;307;7504862;-36
2023/08/18 09:03:52;;;;;;;4.10;3.80;;;;;;;-128.00;-1.00;-1.00;18484;287;7505240;-32
2023/08/18 09:06:17;;;;;;;4.60;3.20;;;;;;;-128.00;-1.00;-1.00;18487;296;7504334;-32
2023/08/18 09:08:43;;;;;;;5.50;3.50;;;;;;;-128.00;-1.00;-1.00;18465;287;7504896;-34
2023/08/18 09:11:09;;;;;;;5.70;4.30;;;;;;;-128.00;-1.00;-1.00;18460;296;7504409;-33
2023/08/18 09:13:35;;;;;;;3.40;3.20;;;;;;;-128.00;-1.00;-1.00;18459;296;7505175;-36
2023/08/18 09:16:03;;;;;;;3.90;3.60;;;;;;;-128.00;-1.00;-1.00;18476;288;7504590;-36
2023/08/18 09:18:32;;;;;;;14.00;5.00;;;;;;;-128.00;-1.00;-1.00;18478;296;7504403;-36
2023/08/18 09:20:57;;;;;;;5.90;3.80;;;;;;;-128.00;-1.00;-1.00;18475;297;7506776;-33
2023/08/18 09:23:27;;;;;;;4.50;4.00;;;;;;;-128.00;-1.00;-1.00;18177;320;8166265;-34
2023/08/18 09:25:55;;;;;;;4.40;4.10;;;;;;;-128.00;-1.00;-1.00;18465;348;7505851;-30
2023/08/18 09:28:20;;;;;;;4.40;4.00;;;;;;;-128.00;-1.00;-1.00;18484;296;7504881;-32
2023/08/18 09:30:46;;;;;;;15.30;4.30;;;;;;;-128.00;-1.00;-1.00;18498;295;7506228;-32
2023/08/18 09:33:12;;;;;;;3.20;3.00;;;;;;;-128.00;-1.00;-1.00;18487;348;7504443;-35
2023/08/18 09:35:38;;;;;;;3.60;3.30;;;;;;;-128.00;-1.00;-1.00;18487;288;7505119;-32
2023/08/18 09:38:04;;;;;;;5.00;4.40;;;;;;;-128.00;-1.00;-1.00;18516;296;7505357;-35
2023/08/18 09:40:29;;;;;;;4.00;3.70;;;;;;;-128.00;-1.00;-1.00;18465;331;7506617;-31
2023/08/18 09:42:56;;;;;;;3.50;3.10;;;;;;;-128.00;-1.00;-1.00;18500;347;7504517;-32
2023/08/18 09:45:23;;;;;;;4.40;2.80;;;;;;;-128.00;-1.00;-1.00;18491;288;7506417;-35
2023/08/18 09:47:53;;;;;;;4.90;3.10;;;;;;;-128.00;-1.00;-1.00;18483;288;7504439;-36
2023/08/18 09:50:20;;;;;;;2.10;2.00;;;;;;;-128.00;-1.00;-1.00;18507;296;7504784;-32
2023/08/18 09:52:46;;;;;;;9.90;3.70;;;;;;;-128.00;-1.00;-1.00;18482;296;7505019;-36
2023/08/18 09:55:14;;;;;;;3.70;3.40;;;;;;;-128.00;-1.00;-1.00;18503;296;7504696;-32
2023/08/18 09:57:56;;;;;;;5.40;4.20;;;;;;;-128.00;-1.00;-1.00;18467;296;7506187;-36
2023/08/18 10:00:21;;;;;;;5.40;4.40;;;;;;;-128.00;-1.00;-1.00;18498;288;7506262;-35
2023/08/18 10:02:47;;;;;;;4.90;4.10;;;;;;;-128.00;-1.00;-1.00;18474;288;7504604;-36
2023/08/18 10:05:14;;;;;;;3.90;3.40;;;;;;;-128.00;-1.00;-1.00;18482;296;7504650;-32
2023/08/18 10:07:39;;;;;;;4.00;3.60;;;;;;;-128.00;-1.00;-1.00;18526;296;7506352;-33
2023/08/18 10:10:06;;;;;;;3.70;3.50;;;;;;;-128.00;-1.00;-1.00;18498;288;7506450;-32
2023/08/18 10:12:31;;;;;;;10.30;4.80;;;;;;;-128.00;-1.00;-1.00;18521;288;7505258;-32
2023/08/18 10:14:58;;;;;;;5.00;4.20;;;;;;;-128.00;-1.00;-1.00;18881;296;7504558;-35
2023/08/18 10:17:24;;;;;;;4.10;3.80;;;;;;;-128.00;-1.00;-1.00;18922;295;7505619;-32
2023/08/18 10:19:52;;;;;;;5.20;3.60;;;;;;;-128.00;-1.00;-1.00;18468;348;7504295;-32
2023/08/18 10:22:19;;;;;;;4.90;3.70;;;;;;;-128.00;-1.00;-1.00;18480;288;7504832;-36
2023/08/18 10:24:46;;;;;;;3.70;3.40;;;;;;;-128.00;-1.00;-1.00;18489;296;7504563;-36
2023/08/18 10:27:35;;;;;;;4.90;4.40;;;;;;;-128.00;-1.00;-1.00;18471;297;7505330;-36
2023/08/18 10:30:21;;;;;;;5.80;5.30;;;;;;;-128.00;-1.00;-1.00;18484;288;7504434;-32
2023/08/18 10:32:47;;;;;;;6.30;3.70;;;;;;;-128.00;-1.00;-1.00;18512;295;7506741;-36
2023/08/18 10:35:26;;;;;;;4.00;3.60;;;;;;;-128.00;-1.00;-1.00;18890;296;7505219;-35
2023/08/18 10:38:08;;;;;;;5.00;3.70;;;;;;;-128.00;-1.00;-1.00;18507;343;7505620;-36
2023/08/18 10:40:35;;;;;;;4.70;4.30;;;;;;;-128.00;-1.00;-1.00;18479;348;7506626;-32
2023/08/18 10:43:13;;;;;;;4.80;3.80;;;;;;;-128.00;-1.00;-1.00;18484;288;7505786;-35
2023/08/18 10:45:40;;;;;;;4.40;4.00;;;;;;;-128.00;-1.00;-1.00;18494;288;7505814;-32
2023/08/18 10:51:49;;;;;;;5.30;4.80;;;;;;;-128.00;-1.00;-1.00;18496;288;7504974;-33
2023/08/18 10:54:14;;;;;;;10.10;7.20;;;;;;;-128.00;-1.00;-1.00;18462;295;7504878;-35
2023/08/18 10:56:41;;;;;;;7.70;4.50;;;;;;;-128.00;-1.00;-1.00;18889;288;7504584;-36
2023/08/18 10:59:07;;;;;;;4.40;4.10;;;;;;;-128.00;-1.00;-1.00;18878;347;7505249;-35
2023/08/18 11:01:33;;;;;;;4.40;4.00;;;;;;;-128.00;-1.00;-1.00;18881;296;7504759;-36
2023/08/18 11:03:59;;;;;;;5.40;4.60;;;;;;;-128.00;-1.00;-1.00;18887;296;7504781;-35
2023/08/18 11:06:26;;;;;;;6.30;5.70;;;;;;;-128.00;-1.00;-1.00;18878;295;7504153;-33
2023/08/18 11:08:53;;;;;;;4.40;4.00;;;;;;;-128.00;-1.00;-1.00;18487;336;7505867;-35
2023/08/18 11:11:20;;;;;;;8.40;3.90;;;;;;;-128.00;-1.00;-1.00;18497;296;7504999;-36
2023/08/18 11:13:46;;;;;;;3.70;3.30;;;;;;;-128.00;-1.00;-1.00;18502;311;7505372;-32
2023/08/18 11:16:12;;;;;;;5.70;4.10;;;;;;;-128.00;-1.00;-1.00;18515;288;7504572;-32
2023/08/18 11:18:41;;;;;;;3.90;2.70;;;;;;;-128.00;-1.00;-1.00;18478;296;7504415;-32
2023/08/18 11:21:06;;;;;;;3.10;2.60;;;;;;;-128.00;-1.00;-1.00;18510;347;7504524;-32
2023/08/18 11:23:32;;;;;;;3.30;3.00;;;;;;;-128.00;-1.00;-1.00;18465;296;7504743;-35
2023/08/18 11:25:58;;;;;;;3.40;2.90;;;;;;;-128.00;-1.00;-1.00;18496;295;7506027;-32
2023/08/18 11:28:24;;;;;;;5.80;4.50;;;;;;;-128.00;-1.00;-1.00;18469;288;7506069;-32
2023/08/18 11:30:53;;;;;;;3.90;3.50;;;;;;;-128.00;-1.00;-1.00;18458;296;7504270;-32
2023/08/18 11:33:19;;;;;;;3.90;3.40;;;;;;;-128.00;-1.00;-1.00;18471;296;7506061;-35
2023/08/18 11:35:45;;;;;;;5.80;4.00;;;;;;;-128.00;-1.00;-1.00;18495;295;7506165;-32
2023/08/18 11:38:11;;;;;;;5.10;4.60;;;;;;;-128.00;-1.00;-1.00;18913;288;7504940;-32
2023/08/18 11:40:38;;;;;;;7.60;4.80;;;;;;;-128.00;-1.00;-1.00;18862;284;7504459;-35
2023/08/18 11:43:10;;;;;;;5.50;3.40;;;;;;;-128.00;-1.00;-1.00;18453;296;7505783;-31
2023/08/18 11:45:36;;;;;;;;;;;;;;;-128.00;-1.00;-1.00;18506;288;7506663;-35
2023/08/18 11:48:05;;;;;;;4.80;4.40;;;;;;;-128.00;-1.00;-1.00;18482;296;7504903;-37
2023/08/18 11:50:37;;;;;;;4.30;4.00;;;;;;;-128.00;-1.00;-1.00;18508;296;7505990;-35
2023/08/18 11:53:03;;;;;;;3.80;3.50;;;;;;;-128.00;-1.00;-1.00;18523;307;7506004;-35
2023/08/18 11:55:34;;;;;;;3.60;3.20;;;;;;;-128.00;-1.00;-1.00;18492;296;7504870;-32
2023/08/18 11:58:05;;;;;;;9.10;7.10;;;;;;;-128.00;-1.00;-1.00;18458;296;7505826;-35
2023/08/18 12:00:35;;;;;;;5.00;4.50;;;;;;;-128.00;-1.00;-1.00;18466;297;7506123;-32
2023/08/18 12:03:02;;;;;;;4.20;3.90;;;;;;;-128.00;-1.00;-1.00;18474;297;7505442;-35
2023/08/18 12:05:28;;;;;;;4.50;4.10;;;;;;;-128.00;-1.00;-1.00;18486;295;7504641;-32
2023/08/18 12:07:54;;;;;;;5.70;4.30;;;;;;;-128.00;-1.00;-1.00;18886;319;7504217;-32
2023/08/18 12:10:21;;;;;;;12.20;5.00;;;;;;;-128.00;-1.00;-1.00;18896;296;7504916;-32